Terminal Aerodrome Forecast
Issued by NWS Shreveport, LA

Home | Current Version | Previous Version | Text Only | Print | Product List | Glossary On
Versions: 1 2 3 4 5 6 7 8 9 10 11 12 13 14 15 16
020
FTUS44 KSHV 201159
TAFLFK
TAF
KLFK 201159Z 2012/2112 32009G16KT P6SM -SHRA VCTS FEW009 OVC019CB
      TEMPO 2012/2016 4SM TSRA BR OVC015CB
     FM201800 VRB06KT 5SM -SHRA BR OVC015
     FM210000 31009KT P6SM VCSH BKN030=

USA.gov is the U.S. government's official web portal to all federal, state and local government web resources and services.